Scottsdale, Arizona
Current Conditions -  °F | °C
As of 7:51 PM on Friday 24 Oct 2014 (Local Time) from KPHX Reporting Station
Clear Clear  
Wind Chill: 85°   Ceiling: Unl
Heat Index: 85°   Visibility: 10mi
Dew Point: 49°   Wind: 0mph
Humidity: 29%   Direction: NA
Pressure: 29.95"   Gusts: NA
Location:  33.49°N, 111.92°W
Report Text: KPHX 250251Z 00000KT 10SM CLR 29/09 A2995 RMK AO2 SLP126 T02940094 53008
Loading
Personal Weather Stations






























Interactive Weather Map
Tropical Storm Tracking
New forecast layout! Learn more

10-Day Weather Forecast

Advertisements
Track Severe Weather on mobile